createdAt,value
2018-09-28T00:02:00.007Z,95934.84
2018-09-28T00:04:26.427Z,95936.81
2018-09-28T00:06:52.764Z,95933.09
2018-09-28T00:09:19.149Z,95926.30
2018-09-28T00:11:45.581Z,95920.79
2018-09-28T00:14:12.053Z,95917.52
2018-09-28T00:16:38.532Z,95912.92
2018-09-28T00:19:04.952Z,95917.75
2018-09-28T00:21:31.345Z,95911.38
2018-09-28T00:23:57.714Z,95909.27
2018-09-28T00:26:24.130Z,95909.20
2018-09-28T00:28:50.478Z,95906.70
2018-09-28T00:31:16.835Z,95908.08
2018-09-28T00:33:43.480Z,95904.47
2018-09-28T00:36:09.938Z,95896.43
2018-09-28T00:38:36.291Z,95888.92
2018-09-28T00:41:02.734Z,95891.75
2018-09-28T00:43:29.296Z,95887.05
2018-09-28T00:45:55.654Z,95882.70
2018-09-28T00:48:22.173Z,95875.67
2018-09-28T00:50:48.585Z,95872.72
2018-09-28T00:53:14.930Z,95868.88
2018-09-28T00:55:41.336Z,95863.64
2018-09-28T00:58:07.724Z,95856.41
2018-09-28T01:00:34.064Z,95860.64
2018-09-28T01:03:00.448Z,95855.78
2018-09-28T01:05:26.787Z,95852.92
2018-09-28T01:07:53.184Z,95851.48
2018-09-28T01:10:19.575Z,95854.72
2018-09-28T01:12:45.913Z,95856.31
2018-09-28T01:15:12.253Z,95853.03
2018-09-28T01:17:38.637Z,95848.59
2018-09-28T01:20:05.080Z,95852.53
2018-09-28T01:22:31.515Z,95853.67
2018-09-28T01:24:57.865Z,95855.81
2018-09-28T01:27:24.232Z,95856.98
2018-09-28T01:29:51.393Z,95859.06
2018-09-28T01:32:17.721Z,95857.97
2018-09-28T01:34:44.149Z,95854.39
2018-09-28T01:37:10.528Z,95859.48
2018-09-28T01:39:36.911Z,95831.66
2018-09-28T01:42:03.332Z,95850.17
2018-09-28T01:44:29.799Z,95846.91
2018-09-28T01:46:56.265Z,95843.88
2018-09-28T01:49:22.681Z,95845.20
2018-09-28T01:51:49.056Z,95843.55
2018-09-28T01:54:15.448Z,95836.95
2018-09-28T01:56:41.810Z,95823.56
2018-09-28T01:59:08.151Z,95824.83
2018-09-28T02:01:34.572Z,95829.69
2018-09-28T02:04:00.926Z,95826.17
2018-09-28T02:06:27.331Z,95829.14
2018-09-28T02:08:53.714Z,95821.30
2018-09-28T02:11:20.079Z,95828.35
2018-09-28T02:13:46.463Z,95834.48
2018-09-28T02:16:12.868Z,95844.88
2018-09-28T02:18:39.228Z,95843.92
2018-09-28T02:21:05.588Z,95842.34
2018-09-28T02:23:31.956Z,95841.78
2018-09-28T02:25:58.392Z,95836.23
2018-09-28T02:28:24.887Z,95835.17
2018-09-28T02:30:51.324Z,95832.78
2018-09-28T02:33:17.752Z,95833.27
2018-09-28T02:35:44.089Z,95829.98
2018-09-28T02:38:10.590Z,95829.52
2018-09-28T02:40:36.988Z,95818.47
2018-09-28T02:43:03.335Z,95816.44
2018-09-28T02:45:29.673Z,95814.22
2018-09-28T02:47:56.073Z,95811.36
2018-09-28T02:50:22.470Z,95805.16
2018-09-28T02:52:49.040Z,95815.22
2018-09-28T02:55:15.439Z,95818.33
2018-09-28T02:57:41.807Z,95825.66
2018-09-28T03:00:08.138Z,95830.57
2018-09-28T03:02:34.466Z,95825.57
2018-09-28T03:05:00.902Z,95823.91
2018-09-28T03:07:27.299Z,95820.83
2018-09-28T03:09:53.798Z,95819.20
2018-09-28T03:12:20.166Z,95820.05
2018-09-28T03:14:46.590Z,95818.98
2018-09-28T03:17:13.227Z,95821.02
2018-09-28T03:19:39.592Z,95815.24
2018-09-28T03:22:05.917Z,95820.28
2018-09-28T03:24:32.318Z,95821.55
2018-09-28T03:26:58.679Z,95819.17
2018-09-28T03:29:25.098Z,95822.01
2018-09-28T03:31:51.471Z,95823.26
2018-09-28T03:34:17.856Z,95827.92
2018-09-28T03:36:44.234Z,95821.03
2018-09-28T03:39:10.620Z,95821.45
2018-09-28T03:41:37.066Z,95821.48
2018-09-28T03:44:03.534Z,95814.09
2018-09-28T03:46:30.003Z,95814.73
2018-09-28T03:48:56.396Z,95800.13
2018-09-28T03:51:22.865Z,95802.45
2018-09-28T03:53:49.228Z,95794.88
2018-09-28T03:56:15.584Z,95799.57
2018-09-28T03:58:41.917Z,95792.09
2018-09-28T04:01:08.316Z,95791.18
2018-09-28T04:03:34.648Z,95787.07
2018-09-28T04:06:01.060Z,95786.41
2018-09-28T04:08:27.460Z,95783.09
2018-09-28T04:10:53.869Z,95783.54
2018-09-28T04:13:20.261Z,95778.41
2018-09-28T04:15:46.689Z,95776.73
2018-09-28T04:18:13.124Z,95765.91
2018-09-28T04:20:39.521Z,95757.83
2018-09-28T04:23:05.974Z,95760.94
2018-09-28T04:25:32.313Z,95759.30
2018-09-28T04:27:58.680Z,95767.32
2018-09-28T04:30:25.090Z,95759.80
2018-09-28T04:32:51.521Z,95751.88
2018-09-28T04:35:17.882Z,95752.69
2018-09-28T04:37:44.271Z,95758.43
2018-09-28T04:40:10.748Z,95758.73
2018-09-28T04:42:37.351Z,95748.59
2018-09-28T04:45:03.808Z,95756.09
2018-09-28T04:47:30.216Z,95747.90
2018-09-28T04:49:56.608Z,95749.62
2018-09-28T04:52:23.006Z,95746.34
2018-09-28T04:54:49.404Z,95741.20
2018-09-28T04:57:15.776Z,95747.59
2018-09-28T04:59:42.118Z,95743.88
2018-09-28T05:02:08.507Z,95746.18
2018-09-28T05:04:34.922Z,95741.42
2018-09-28T05:07:01.346Z,95734.95
2018-09-28T05:09:27.678Z,95743.80
2018-09-28T05:11:54.030Z,95742.31
2018-09-28T05:14:20.411Z,95744.41
2018-09-28T05:16:46.778Z,95737.95
2018-09-28T05:19:13.208Z,95734.70
2018-09-28T05:21:39.548Z,95739.87
2018-09-28T05:24:05.897Z,95733.42
2018-09-28T05:26:32.242Z,95738.30
2018-09-28T05:28:58.651Z,95739.93
2018-09-28T05:31:25.079Z,95738.75
2018-09-28T05:33:51.444Z,95740.39
2018-09-28T05:36:17.834Z,95739.54
2018-09-28T05:38:44.220Z,95746.47
2018-09-28T05:41:10.589Z,95743.55
2018-09-28T05:43:36.957Z,95737.62
2018-09-28T05:46:03.329Z,95748.80
2018-09-28T05:48:29.680Z,95754.39
2018-09-28T05:50:56.014Z,95747.03
2018-09-28T05:53:22.403Z,95749.13
2018-09-28T05:55:48.740Z,95748.94
2018-09-28T05:58:15.109Z,95749.98
2018-09-28T06:00:41.589Z,95754.72
2018-09-28T06:03:07.985Z,95754.13
2018-09-28T06:05:34.349Z,95746.36
2018-09-28T06:08:00.758Z,95743.92
2018-09-28T06:10:27.236Z,95740.95
2018-09-28T06:12:53.598Z,95740.55
2018-09-28T06:15:20.030Z,95744.09
2018-09-28T06:20:19.084Z,95739.63
2018-09-28T06:22:45.497Z,95737.78
2018-09-28T06:25:11.856Z,95732.40
2018-09-28T06:27:38.276Z,95734.81
2018-09-28T06:30:04.725Z,95734.20
2018-09-28T06:32:31.008Z,95728.11
2018-09-28T06:34:57.348Z,95725.92
2018-09-28T06:37:23.744Z,95719.28
2018-09-28T06:39:50.098Z,95721.56
2018-09-28T06:42:16.469Z,95711.60
2018-09-28T06:44:42.975Z,95703.42
2018-09-28T06:47:09.340Z,95701.20
2018-09-28T06:49:35.823Z,95704.20
2018-09-28T06:52:02.328Z,95705.53
2018-09-28T06:54:28.687Z,95708.20
2018-09-28T06:56:57.336Z,95717.04
2018-09-28T06:59:23.708Z,95711.22
2018-09-28T07:01:50.090Z,95721.06
2018-09-28T07:04:16.491Z,95712.16
2018-09-28T07:06:43.472Z,95708.52
2018-09-28T07:09:09.817Z,95715.93
2018-09-28T07:11:36.203Z,95704.22
2018-09-28T07:14:02.541Z,95695.61
2018-09-28T07:16:28.996Z,95702.18
2018-09-28T07:18:55.371Z,95691.29
2018-09-28T07:21:21.706Z,95699.81
2018-09-28T07:23:48.078Z,95701.33
2018-09-28T07:26:14.532Z,95700.80
2018-09-28T07:28:40.988Z,95704.94
2018-09-28T07:31:07.382Z,95702.84
2018-09-28T07:33:33.789Z,95708.54
2018-09-28T07:36:00.265Z,95703.80
2018-09-28T07:38:26.663Z,95699.14
2018-09-28T07:40:53.068Z,95694.41
2018-09-28T07:43:20.726Z,95694.67
2018-09-28T07:45:47.113Z,95688.27
2018-09-28T07:48:13.521Z,95686.00
2018-09-28T07:50:39.948Z,95681.27
2018-09-28T07:53:06.373Z,95670.14
2018-09-28T07:55:32.816Z,95674.41
2018-09-28T07:57:59.217Z,95678.65
2018-09-28T08:00:25.659Z,95671.83
2018-09-28T08:02:52.597Z,95667.67
2018-09-28T08:05:19.009Z,95660.06
2018-09-28T08:07:46.157Z,95663.34
2018-09-28T08:10:13.120Z,95661.67
2018-09-28T08:12:40.246Z,95662.55
2018-09-28T08:15:06.625Z,95661.88
2018-09-28T08:17:33.245Z,95665.89
2018-09-28T08:19:59.623Z,95666.84
2018-09-28T08:22:26.254Z,95657.55
2018-09-28T08:24:52.729Z,95657.06
2018-09-28T08:27:19.201Z,95650.91
2018-09-28T08:29:46.241Z,95658.41
2018-09-28T08:32:12.663Z,95643.27
2018-09-28T08:34:39.098Z,95646.50
2018-09-28T08:37:05.610Z,95642.70
2018-09-28T08:39:32.067Z,95641.07
2018-09-28T08:41:58.495Z,95641.61
2018-09-28T08:44:24.932Z,95641.25
2018-09-28T08:46:51.340Z,95641.09
2018-09-28T08:49:17.841Z,95637.64
2018-09-28T08:51:44.230Z,95632.02
2018-09-28T08:54:10.600Z,95628.34
2018-09-28T08:56:37.368Z,95625.64
2018-09-28T08:59:03.730Z,95627.55
2018-09-28T09:01:30.141Z,95618.34
2018-09-28T09:03:56.698Z,95616.94
2018-09-28T09:06:23.107Z,95612.23
2018-09-28T09:08:49.567Z,95608.20
2018-09-28T09:11:16.038Z,95604.89
2018-09-28T09:13:42.527Z,95593.83
2018-09-28T09:16:08.907Z,95594.33
2018-09-28T09:18:35.409Z,95590.00
2018-09-28T09:21:01.780Z,95589.61
2018-09-28T09:23:28.328Z,95583.05
2018-09-28T09:25:55.209Z,95580.22
2018-09-28T09:28:21.748Z,95568.17
2018-09-28T09:30:48.384Z,95569.05
2018-09-28T09:33:14.813Z,95570.78
2018-09-28T09:35:41.249Z,95558.88
2018-09-28T09:38:07.682Z,95555.16
2018-09-28T09:40:34.185Z,95546.72
2018-09-28T09:43:00.644Z,95544.34
2018-09-28T09:45:27.051Z,95542.21
2018-09-28T09:47:53.730Z,95538.30
2018-09-28T09:50:20.173Z,95539.77
2018-09-28T09:52:46.576Z,95533.91
2018-09-28T09:55:12.985Z,95525.09
2018-09-28T09:57:39.373Z,95516.78
2018-09-28T10:00:05.748Z,95513.57
2018-09-28T10:02:32.288Z,95506.08
2018-09-28T10:04:58.626Z,95500.05
2018-09-28T10:07:25.123Z,95499.59
2018-09-28T10:09:51.498Z,95493.20
2018-09-28T10:12:18.258Z,95492.59
2018-09-28T10:14:44.608Z,95491.77
2018-09-28T10:17:11.091Z,95485.64
2018-09-28T10:19:37.535Z,95485.23
2018-09-28T10:22:03.950Z,95482.19
2018-09-28T10:24:30.328Z,95471.24
2018-09-28T10:26:56.792Z,95467.23
2018-09-28T10:29:23.845Z,95466.09
2018-09-28T10:31:50.280Z,95462.00
2018-09-28T10:34:16.666Z,95451.93
2018-09-28T10:36:43.129Z,95441.28
2018-09-28T10:39:09.514Z,95434.66
2018-09-28T10:41:35.833Z,95431.99
2018-09-28T10:44:02.636Z,95416.46
2018-09-28T10:46:29.014Z,95417.94
2018-09-28T10:48:55.394Z,95420.07
2018-09-28T10:51:21.795Z,95410.55
2018-09-28T10:53:48.071Z,95413.09
2018-09-28T10:56:16.490Z,95401.03
2018-09-28T10:58:42.973Z,95393.48
2018-09-28T11:01:09.229Z,95380.53
2018-09-28T11:03:35.644Z,95377.08
2018-09-28T11:06:01.950Z,95379.20
2018-09-28T11:08:28.461Z,95374.37
2018-09-28T11:10:54.739Z,95374.41
2018-09-28T11:13:21.115Z,95366.64
2018-09-28T11:15:47.722Z,95360.20
2018-09-28T11:18:14.513Z,95356.69
2018-09-28T11:20:40.887Z,95351.16
2018-09-28T11:23:07.280Z,95355.69
2018-09-28T11:25:33.683Z,95342.84
2018-09-28T11:28:00.185Z,95340.80
2018-09-28T11:30:26.570Z,95338.42
2018-09-28T11:32:52.956Z,95328.97
2018-09-28T11:35:19.284Z,95325.16
2018-09-28T11:37:45.690Z,95321.42
2018-09-28T11:40:12.051Z,95319.95
2018-09-28T11:42:38.379Z,95313.73
2018-09-28T11:45:04.720Z,95313.97
2018-09-28T11:47:31.145Z,95308.45
2018-09-28T11:49:57.478Z,95302.64
2018-09-28T11:52:23.889Z,95298.73
2018-09-28T11:54:50.263Z,95295.60
2018-09-28T11:57:17.304Z,95293.81
2018-09-28T11:59:43.616Z,95292.11
2018-09-28T12:02:09.942Z,95286.95
2018-09-28T12:04:36.359Z,95283.27
2018-09-28T12:07:02.780Z,95284.47
2018-09-28T12:09:29.169Z,95283.27
2018-09-28T12:11:55.521Z,95283.86
2018-09-28T12:14:21.874Z,95280.64
2018-09-28T12:16:50.235Z,95274.66
2018-09-28T12:19:16.793Z,95266.61
2018-09-28T12:21:43.206Z,95273.37
2018-09-28T12:24:09.534Z,95263.34
2018-09-28T12:26:36.781Z,95261.47
2018-09-28T12:29:03.121Z,95262.52
2018-09-28T12:31:29.481Z,95263.84
2018-09-28T12:33:55.920Z,95264.16
2018-09-28T12:36:22.391Z,95253.80
2018-09-28T12:38:49.087Z,95255.55
2018-09-28T12:41:15.430Z,95249.34
2018-09-28T12:43:41.849Z,95245.11
2018-09-28T12:46:08.245Z,95248.56
2018-09-28T12:48:34.662Z,95245.06
2018-09-28T12:51:00.993Z,95237.73
2018-09-28T12:53:27.372Z,95229.87
2018-09-28T12:55:53.732Z,95229.38
2018-09-28T12:58:20.070Z,95232.27
2018-09-28T13:00:46.493Z,95225.59
2018-09-28T13:03:12.877Z,95223.14
2018-09-28T13:05:39.237Z,95224.61
2018-09-28T13:08:05.659Z,95225.16
2018-09-28T13:10:32.037Z,95221.16
2018-09-28T13:12:58.427Z,95216.75
2018-09-28T13:15:24.871Z,95221.75
2018-09-28T13:17:51.302Z,95214.25
2018-09-28T13:20:17.886Z,95216.96
2018-09-28T13:22:44.252Z,95210.98
2018-09-28T13:25:10.596Z,95208.41
2018-09-28T13:27:36.945Z,95203.59
2018-09-28T13:30:03.367Z,95203.30
2018-09-28T13:32:29.762Z,95190.69
2018-09-28T13:34:56.135Z,95201.37
2018-09-28T13:37:22.559Z,95198.31
2018-09-28T13:39:48.915Z,95199.84
2018-09-28T13:42:15.363Z,95189.05
2018-09-28T13:44:41.778Z,95190.17
2018-09-28T13:47:08.254Z,95182.80
2018-09-28T13:49:34.618Z,95182.09
2018-09-28T13:52:01.089Z,95176.87
2018-09-28T13:54:27.578Z,95180.28
2018-09-28T13:56:53.852Z,95168.91
2018-09-28T13:59:20.277Z,95171.91
2018-09-28T14:01:47.032Z,95170.13
2018-09-28T14:04:13.420Z,95161.18
2018-09-28T14:06:39.812Z,95163.63
2018-09-28T14:09:06.162Z,95163.38
2018-09-28T14:11:32.583Z,95162.70
2018-09-28T14:13:59.003Z,95156.67
2018-09-28T14:16:25.415Z,95157.54
2018-09-28T14:18:52.283Z,95160.30
2018-09-28T14:21:18.760Z,95159.75
2018-09-28T14:23:45.105Z,95153.69
2018-09-28T14:26:11.563Z,95158.42
2018-09-28T14:28:37.948Z,95154.02
2018-09-28T14:31:04.559Z,95159.11
2018-09-28T14:33:30.980Z,95149.58
2018-09-28T14:35:57.319Z,95155.06
2018-09-28T14:38:23.773Z,95155.42
2018-09-28T14:40:50.862Z,95151.20
2018-09-28T14:43:17.335Z,95146.45
2018-09-28T14:45:43.663Z,95147.47
2018-09-28T14:48:10.127Z,95137.80
2018-09-28T14:50:36.608Z,95143.00
2018-09-28T14:53:02.953Z,95140.66
2018-09-28T14:55:29.340Z,95138.16
2018-09-28T14:57:55.772Z,95136.86
2018-09-28T15:00:22.282Z,95143.96
2018-09-28T15:02:48.625Z,95138.98
2018-09-28T15:05:14.994Z,95140.97
2018-09-28T15:07:41.498Z,95140.27
2018-09-28T15:10:07.812Z,95141.77
2018-09-28T15:12:34.285Z,95135.63
2018-09-28T15:15:00.713Z,95134.98
2018-09-28T15:17:27.047Z,95138.07
2018-09-28T15:19:54.202Z,95135.63
2018-09-28T15:22:20.610Z,95128.72
2018-09-28T15:24:47.002Z,95134.62
2018-09-28T15:27:13.438Z,95132.34
2018-09-28T15:29:39.851Z,95124.10
2018-09-28T15:32:06.266Z,95130.48
2018-09-28T15:34:32.646Z,95125.56
2018-09-28T15:36:59.051Z,95122.66
2018-09-28T15:39:25.420Z,95119.80
2018-09-28T15:41:51.847Z,95120.45
2018-09-28T15:44:18.213Z,95114.30
2018-09-28T15:46:44.622Z,95122.22
2018-09-28T15:49:11.128Z,95125.43
2018-09-28T15:51:37.510Z,95121.45
2018-09-28T15:54:03.908Z,95125.39
2018-09-28T15:56:30.304Z,95126.55
2018-09-28T15:58:56.697Z,95125.89
2018-09-28T16:01:23.086Z,95125.56
2018-09-28T16:03:49.440Z,95130.72
2018-09-28T16:06:15.852Z,95129.43
2018-09-28T16:08:42.257Z,95128.14
2018-09-28T16:11:08.645Z,95125.33
2018-09-28T16:13:35.002Z,95130.77
2018-09-28T16:16:01.412Z,95127.89
2018-09-28T16:18:27.762Z,95127.95
2018-09-28T16:20:54.171Z,95128.25
2018-09-28T16:23:20.600Z,95124.02
2018-09-28T16:25:46.957Z,95121.52
2018-09-28T16:28:13.281Z,95118.22
2018-09-28T16:30:39.636Z,95111.27
2018-09-28T16:33:06.047Z,95117.40
2018-09-28T16:35:32.419Z,95118.77
2018-09-28T16:37:58.821Z,95115.88
2018-09-28T16:40:25.165Z,95114.91
2018-09-28T16:42:51.576Z,95115.32
2018-09-28T16:45:17.906Z,95113.44
2018-09-28T16:47:44.308Z,95114.19
2018-09-28T16:50:10.734Z,95105.94
2018-09-28T16:52:37.168Z,95117.61
2018-09-28T16:55:03.523Z,95115.14
2018-09-28T16:57:29.906Z,95113.52
2018-09-28T16:59:56.313Z,95113.34
2018-09-28T17:02:22.648Z,95114.91
2018-09-28T17:04:49.016Z,95119.02
2018-09-28T17:07:15.346Z,95113.17
2018-09-28T17:09:41.677Z,95114.47
2018-09-28T17:12:08.052Z,95115.22
2018-09-28T17:14:34.378Z,95121.01
2018-09-28T17:17:00.755Z,95122.11
2018-09-28T17:19:27.110Z,95125.20
2018-09-28T17:21:53.543Z,95127.27
2018-09-28T17:24:19.904Z,95129.38
2018-09-28T17:26:46.248Z,95128.92
2018-09-28T17:29:12.681Z,95125.28
2018-09-28T17:31:39.071Z,95123.17
2018-09-28T17:34:05.457Z,95128.33
2018-09-28T17:36:31.832Z,95124.10
2018-09-28T17:38:58.261Z,95136.70
2018-09-28T17:41:24.644Z,95137.91
2018-09-28T17:43:51.024Z,95140.48
2018-09-28T17:46:17.393Z,95141.44
2018-09-28T17:48:43.737Z,95140.38
2018-09-28T17:51:10.116Z,95151.92
2018-09-28T17:53:36.479Z,95144.42
2018-09-28T17:56:02.861Z,95143.70
2018-09-28T17:58:29.314Z,95148.98
2018-09-28T18:00:55.652Z,95155.42
2018-09-28T18:03:22.037Z,95157.69
2018-09-28T18:05:48.485Z,95160.11
2018-09-28T18:08:14.826Z,95149.03
2018-09-28T18:10:41.173Z,95150.66
2018-09-28T18:13:07.572Z,95155.16
2018-09-28T18:15:33.936Z,95150.38
2018-09-28T18:18:00.338Z,95155.89
2018-09-28T18:20:26.793Z,95157.91
2018-09-28T18:22:53.128Z,95155.84
2018-09-28T18:25:19.773Z,95152.58
2018-09-28T18:27:46.505Z,95150.11
2018-09-28T18:30:12.911Z,95149.92
2018-09-28T18:32:39.320Z,95155.38
2018-09-28T18:35:05.659Z,95148.99
2018-09-28T18:37:32.081Z,95151.16
2018-09-28T18:39:58.492Z,95157.50
2018-09-28T18:42:24.908Z,95156.77
2018-09-28T18:44:51.258Z,95152.66
2018-09-28T18:47:17.603Z,95152.06
2018-09-28T18:49:44.038Z,95153.86
2018-09-28T18:52:10.400Z,95150.17
2018-09-28T18:54:36.787Z,95142.23
2018-09-28T18:57:03.190Z,95150.93
2018-09-28T18:59:29.593Z,95151.23
2018-09-28T19:01:56.057Z,95154.91
2018-09-28T19:04:22.404Z,95164.66
2018-09-28T19:06:48.788Z,95166.14
2018-09-28T19:09:15.121Z,95163.41
2018-09-28T19:11:41.551Z,95167.97
2018-09-28T19:14:07.946Z,95161.08
2018-09-28T19:16:34.293Z,95168.09
2018-09-28T19:19:00.675Z,95172.47
2018-09-28T19:21:27.127Z,95179.20
2018-09-28T19:23:53.540Z,95183.06
2018-09-28T19:26:19.909Z,95173.87
2018-09-28T19:28:46.303Z,95174.18
2018-09-28T19:31:12.641Z,95178.27
2018-09-28T19:33:39.063Z,95178.36
2018-09-28T19:36:05.405Z,95178.99
2018-09-28T19:38:31.740Z,95175.18
2018-09-28T19:40:58.069Z,95168.95
2018-09-28T19:43:24.456Z,95173.63
2018-09-28T19:45:50.795Z,95165.12
2018-09-28T19:48:17.618Z,95161.89
2018-09-28T19:50:43.995Z,95165.14
2018-09-28T19:53:10.379Z,95166.28
2018-09-28T19:55:36.846Z,95165.82
2018-09-28T19:58:03.277Z,95160.33
2018-09-28T20:00:29.547Z,95154.66
2018-09-28T20:02:55.907Z,95152.64
2018-09-28T20:05:22.286Z,95153.77
2018-09-28T20:07:48.655Z,95154.33
2018-09-28T20:10:15.015Z,95157.06
2018-09-28T20:12:41.357Z,95154.71
2018-09-28T20:15:07.762Z,95147.36
2018-09-28T20:17:34.103Z,95153.58
2018-09-28T20:20:00.550Z,95157.56
2018-09-28T20:22:27.017Z,95165.89
2018-09-28T20:24:53.378Z,95159.69
2018-09-28T20:27:19.764Z,95167.50
2018-09-28T20:29:46.144Z,95162.56
2018-09-28T20:32:12.497Z,95155.47
2018-09-28T20:34:38.857Z,95166.02
2018-09-28T20:37:05.220Z,95166.55
2018-09-28T20:39:31.532Z,95163.77
2018-09-28T20:41:57.921Z,95164.33
2018-09-28T20:44:24.262Z,95164.16
2018-09-28T20:46:50.658Z,95161.72
2018-09-28T20:49:17.090Z,95162.09
2018-09-28T20:51:43.488Z,95166.65
2018-09-28T20:54:09.917Z,95151.33
2018-09-28T20:56:36.342Z,95149.95
2018-09-28T20:59:02.671Z,95150.25
2018-09-28T21:01:29.001Z,95151.33
2018-09-28T21:03:55.371Z,95144.25
2018-09-28T21:06:21.713Z,95147.69
2018-09-28T21:08:48.110Z,95142.81
2018-09-28T21:11:14.449Z,95145.45
2018-09-28T21:13:40.962Z,95146.94
2018-09-28T21:16:07.228Z,95150.59
2018-09-28T21:18:33.566Z,95147.03
2018-09-28T21:20:59.924Z,95145.50
2018-09-28T21:23:26.283Z,95144.26
2018-09-28T21:25:52.686Z,95142.89
2018-09-28T21:28:19.027Z,95151.15
2018-09-28T21:30:45.364Z,95144.80
2018-09-28T21:33:11.724Z,95142.08
2018-09-28T21:35:38.069Z,95145.35
2018-09-28T21:38:04.481Z,95148.54
2018-09-28T21:40:30.841Z,95150.40
2018-09-28T21:42:57.259Z,95147.83
2018-09-28T21:45:23.619Z,95149.98
2018-09-28T21:47:50.057Z,95157.52
2018-09-28T21:50:16.396Z,95154.41
2018-09-28T21:52:42.860Z,95161.48
2018-09-28T21:55:09.191Z,95154.08
2018-09-28T21:57:35.529Z,95150.64
2018-09-28T22:00:01.856Z,95148.53
2018-09-28T22:02:28.253Z,95151.14
2018-09-28T22:04:54.902Z,95147.45
2018-09-28T22:07:21.209Z,95141.91
2018-09-28T22:09:47.822Z,95141.24
2018-09-28T22:12:14.344Z,95134.91
2018-09-28T22:14:40.690Z,95128.61
2018-09-28T22:17:07.087Z,95122.70
2018-09-28T22:19:33.414Z,95129.19
2018-09-28T22:21:59.744Z,95126.55
2018-09-28T22:24:26.192Z,95124.19
2018-09-28T22:26:52.553Z,95126.41
2018-09-28T22:29:19.609Z,95123.11
2018-09-28T22:31:46.208Z,95122.56
2018-09-28T22:34:12.527Z,95121.45
2018-09-28T22:36:38.901Z,95123.93
2018-09-28T22:39:05.283Z,95124.59
2018-09-28T22:41:31.630Z,95130.14
2018-09-28T22:43:57.959Z,95120.48
2018-09-28T22:46:24.307Z,95126.45
2018-09-28T22:48:50.635Z,95124.75
2018-09-28T22:51:16.951Z,95132.98
2018-09-28T22:53:43.280Z,95129.67
2018-09-28T22:56:09.601Z,95124.08
2018-09-28T22:58:35.944Z,95123.76
2018-09-28T23:01:02.315Z,95123.87
2018-09-28T23:03:28.687Z,95117.91
2018-09-28T23:05:55.070Z,95112.53
2018-09-28T23:08:21.462Z,95117.59
2018-09-28T23:10:47.875Z,95118.08
2018-09-28T23:13:14.216Z,95118.58
2018-09-28T23:15:40.587Z,95115.14
2018-09-28T23:18:06.983Z,95116.09
2018-09-28T23:20:33.334Z,95111.58
2018-09-28T23:22:59.668Z,95110.67
2018-09-28T23:25:25.995Z,95115.95
2018-09-28T23:27:52.356Z,95116.04
2018-09-28T23:30:18.711Z,95116.45
2018-09-28T23:32:45.057Z,95110.70
2018-09-28T23:35:11.444Z,95107.11
2018-09-28T23:37:37.811Z,95105.53
2018-09-28T23:40:04.172Z,95107.68
2018-09-28T23:42:30.522Z,95102.17
2018-09-28T23:44:56.869Z,95099.48
2018-09-28T23:47:23.251Z,95106.34
2018-09-28T23:49:49.571Z,95107.09
2018-09-28T23:52:15.952Z,95103.78
2018-09-28T23:54:42.290Z,95100.69
2018-09-28T23:57:08.643Z,95103.78
2018-09-28T23:59:34.990Z,95103.03
